sensor_id;sensor_type;location;lat;lon;timestamp;P1;durP1;ratioP1;P2;durP2;ratioP2
10170;SDS011;5127;50.922;6.988;2023-03-03T00:00:50;27.30;;;17.13;;
10170;SDS011;5127;50.922;6.988;2023-03-03T00:03:18;23.43;;;16.50;;
10170;SDS011;5127;50.922;6.988;2023-03-03T00:05:46;25.50;;;17.73;;
10170;SDS011;5127;50.922;6.988;2023-03-03T00:08:14;24.90;;;17.13;;
10170;SDS011;5127;50.922;6.988;2023-03-03T00:10:41;24.73;;;16.90;;
10170;SDS011;5127;50.922;6.988;2023-03-03T00:13:11;25.77;;;17.70;;
10170;SDS011;5127;50.922;6.988;2023-03-03T00:15:41;24.87;;;17.13;;
10170;SDS011;5127;50.922;6.988;2023-03-03T00:18:19;26.33;;;17.53;;
10170;SDS011;5127;50.922;6.988;2023-03-03T00:20:51;25.33;;;18.10;;
10170;SDS011;5127;50.922;6.988;2023-03-03T00:23:22;26.97;;;17.97;;
10170;SDS011;5127;50.922;6.988;2023-03-03T00:25:54;26.37;;;17.67;;
10170;SDS011;5127;50.922;6.988;2023-03-03T00:28:24;25.47;;;16.77;;
10170;SDS011;5127;50.922;6.988;2023-03-03T00:30:54;27.67;;;17.43;;
10170;SDS011;5127;50.922;6.988;2023-03-03T00:33:25;26.43;;;17.40;;
10170;SDS011;5127;50.922;6.988;2023-03-03T00:35:58;23.97;;;16.47;;
10170;SDS011;5127;50.922;6.988;2023-03-03T00:38:48;26.23;;;17.20;;
10170;SDS011;5127;50.922;6.988;2023-03-03T00:41:15;26.13;;;17.90;;
10170;SDS011;5127;50.922;6.988;2023-03-03T00:43:49;24.47;;;17.63;;
10170;SDS011;5127;50.922;6.988;2023-03-03T00:46:17;28.43;;;18.20;;
10170;SDS011;5127;50.922;6.988;2023-03-03T00:48:47;25.50;;;17.67;;
10170;SDS011;5127;50.922;6.988;2023-03-03T00:51:20;24.93;;;17.23;;
10170;SDS011;5127;50.922;6.988;2023-03-03T00:53:56;23.23;;;16.13;;
10170;SDS011;5127;50.922;6.988;2023-03-03T00:56:24;26.67;;;17.80;;
10170;SDS011;5127;50.922;6.988;2023-03-03T00:58:52;28.20;;;17.73;;
10170;SDS011;5127;50.922;6.988;2023-03-03T01:01:21;25.53;;;16.87;;
10170;SDS011;5127;50.922;6.988;2023-03-03T01:03:53;24.87;;;17.23;;
10170;SDS011;5127;50.922;6.988;2023-03-03T01:06:20;24.20;;;16.80;;
10170;SDS011;5127;50.922;6.988;2023-03-03T01:08:47;25.13;;;17.13;;
10170;SDS011;5127;50.922;6.988;2023-03-03T01:11:16;27.77;;;18.23;;
10170;SDS011;5127;50.922;6.988;2023-03-03T01:13:47;28.83;;;18.17;;
10170;SDS011;5127;50.922;6.988;2023-03-03T01:16:16;26.40;;;18.63;;
10170;SDS011;5127;50.922;6.988;2023-03-03T01:18:44;30.43;;;18.73;;
10170;SDS011;5127;50.922;6.988;2023-03-03T01:21:13;28.07;;;18.40;;
10170;SDS011;5127;50.922;6.988;2023-03-03T01:23:40;29.03;;;19.07;;
10170;SDS011;5127;50.922;6.988;2023-03-03T01:26:07;28.93;;;18.60;;
10170;SDS011;5127;50.922;6.988;2023-03-03T01:28:35;26.80;;;18.67;;
10170;SDS011;5127;50.922;6.988;2023-03-03T01:31:03;24.87;;;18.17;;
10170;SDS011;5127;50.922;6.988;2023-03-03T01:33:31;29.70;;;19.70;;
10170;SDS011;5127;50.922;6.988;2023-03-03T01:35:59;28.03;;;18.50;;
10170;SDS011;5127;50.922;6.988;2023-03-03T01:38:28;28.87;;;19.10;;
10170;SDS011;5127;50.922;6.988;2023-03-03T01:40:56;31.10;;;20.20;;
10170;SDS011;5127;50.922;6.988;2023-03-03T01:43:25;28.57;;;19.13;;
10170;SDS011;5127;50.922;6.988;2023-03-03T01:48:59;28.97;;;19.07;;
10170;SDS011;5127;50.922;6.988;2023-03-03T01:51:30;28.40;;;18.27;;
10170;SDS011;5127;50.922;6.988;2023-03-03T01:54:02;29.00;;;19.23;;
10170;SDS011;5127;50.922;6.988;2023-03-03T01:56:32;29.13;;;19.63;;
10170;SDS011;5127;50.922;6.988;2023-03-03T01:58:59;30.87;;;19.83;;
10170;SDS011;5127;50.922;6.988;2023-03-03T02:01:31;30.17;;;19.67;;
10170;SDS011;5127;50.922;6.988;2023-03-03T02:04:00;33.37;;;20.80;;
10170;SDS011;5127;50.922;6.988;2023-03-03T02:06:29;31.03;;;20.80;;
10170;SDS011;5127;50.922;6.988;2023-03-03T02:08:59;31.87;;;21.17;;
10170;SDS011;5127;50.922;6.988;2023-03-03T02:11:32;32.47;;;20.60;;
10170;SDS011;5127;50.922;6.988;2023-03-03T02:14:03;31.43;;;21.00;;
10170;SDS011;5127;50.922;6.988;2023-03-03T02:16:30;30.77;;;20.67;;
10170;SDS011;5127;50.922;6.988;2023-03-03T02:18:58;33.87;;;21.53;;
10170;SDS011;5127;50.922;6.988;2023-03-03T02:21:26;31.07;;;20.70;;
10170;SDS011;5127;50.922;6.988;2023-03-03T02:23:55;35.10;;;21.90;;
10170;SDS011;5127;50.922;6.988;2023-03-03T02:26:32;33.47;;;21.07;;
10170;SDS011;5127;50.922;6.988;2023-03-03T02:29:04;35.50;;;22.10;;
10170;SDS011;5127;50.922;6.988;2023-03-03T02:31:32;32.90;;;20.37;;
10170;SDS011;5127;50.922;6.988;2023-03-03T02:33:59;31.17;;;20.57;;
10170;SDS011;5127;50.922;6.988;2023-03-03T02:36:28;33.27;;;21.87;;
10170;SDS011;5127;50.922;6.988;2023-03-03T02:38:58;32.17;;;21.23;;
10170;SDS011;5127;50.922;6.988;2023-03-03T02:41:32;37.17;;;23.43;;
10170;SDS011;5127;50.922;6.988;2023-03-03T02:44:04;32.73;;;21.73;;
10170;SDS011;5127;50.922;6.988;2023-03-03T02:46:33;31.73;;;21.07;;
10170;SDS011;5127;50.922;6.988;2023-03-03T02:49:01;32.63;;;22.10;;
10170;SDS011;5127;50.922;6.988;2023-03-03T02:51:30;33.13;;;21.20;;
10170;SDS011;5127;50.922;6.988;2023-03-03T02:53:57;31.77;;;21.03;;
10170;SDS011;5127;50.922;6.988;2023-03-03T02:56:27;34.07;;;21.90;;
10170;SDS011;5127;50.922;6.988;2023-03-03T02:58:56;32.13;;;21.00;;
10170;SDS011;5127;50.922;6.988;2023-03-03T03:01:23;30.27;;;19.87;;
10170;SDS011;5127;50.922;6.988;2023-03-03T03:03:53;34.63;;;20.83;;
10170;SDS011;5127;50.922;6.988;2023-03-03T03:06:21;33.07;;;20.90;;
10170;SDS011;5127;50.922;6.988;2023-03-03T03:08:49;30.07;;;19.97;;
10170;SDS011;5127;50.922;6.988;2023-03-03T03:11:16;37.87;;;22.10;;
10170;SDS011;5127;50.922;6.988;2023-03-03T03:13:43;33.80;;;21.73;;
10170;SDS011;5127;50.922;6.988;2023-03-03T03:16:12;31.17;;;19.67;;
10170;SDS011;5127;50.922;6.988;2023-03-03T03:18:39;31.43;;;19.30;;
10170;SDS011;5127;50.922;6.988;2023-03-03T03:21:07;33.43;;;20.60;;
10170;SDS011;5127;50.922;6.988;2023-03-03T03:23:36;31.70;;;20.53;;
10170;SDS011;5127;50.922;6.988;2023-03-03T03:26:04;31.57;;;19.73;;
10170;SDS011;5127;50.922;6.988;2023-03-03T03:28:33;32.10;;;20.90;;
10170;SDS011;5127;50.922;6.988;2023-03-03T03:31:01;33.03;;;20.83;;
10170;SDS011;5127;50.922;6.988;2023-03-03T03:33:30;29.23;;;19.87;;
10170;SDS011;5127;50.922;6.988;2023-03-03T03:35:59;33.67;;;20.07;;
10170;SDS011;5127;50.922;6.988;2023-03-03T03:38:27;30.27;;;19.17;;
10170;SDS011;5127;50.922;6.988;2023-03-03T03:40:57;33.70;;;20.93;;
10170;SDS011;5127;50.922;6.988;2023-03-03T03:43:25;32.07;;;19.73;;
10170;SDS011;5127;50.922;6.988;2023-03-03T03:45:53;32.53;;;19.77;;
10170;SDS011;5127;50.922;6.988;2023-03-03T03:48:21;31.90;;;20.00;;
10170;SDS011;5127;50.922;6.988;2023-03-03T03:50:50;31.60;;;19.87;;
10170;SDS011;5127;50.922;6.988;2023-03-03T03:53:18;33.43;;;21.00;;
10170;SDS011;5127;50.922;6.988;2023-03-03T03:55:46;31.80;;;19.47;;
10170;SDS011;5127;50.922;6.988;2023-03-03T03:58:15;30.33;;;19.50;;
10170;SDS011;5127;50.922;6.988;2023-03-03T04:00:48;32.03;;;19.87;;
10170;SDS011;5127;50.922;6.988;2023-03-03T04:03:16;30.60;;;19.77;;
10170;SDS011;5127;50.922;6.988;2023-03-03T04:05:46;30.10;;;18.47;;
10170;SDS011;5127;50.922;6.988;2023-03-03T04:08:16;29.23;;;17.47;;
10170;SDS011;5127;50.922;6.988;2023-03-03T04:10:43;34.70;;;19.67;;
10170;SDS011;5127;50.922;6.988;2023-03-03T04:13:11;31.33;;;20.10;;
10170;SDS011;5127;50.922;6.988;2023-03-03T04:15:38;28.20;;;18.07;;
10170;SDS011;5127;50.922;6.988;2023-03-03T04:18:05;31.97;;;18.90;;
10170;SDS011;5127;50.922;6.988;2023-03-03T04:20:33;31.23;;;19.17;;
10170;SDS011;5127;50.922;6.988;2023-03-03T04:23:01;29.10;;;19.17;;
10170;SDS011;5127;50.922;6.988;2023-03-03T04:25:31;28.67;;;19.47;;
10170;SDS011;5127;50.922;6.988;2023-03-03T04:27:59;31.37;;;19.57;;
10170;SDS011;5127;50.922;6.988;2023-03-03T04:30:26;30.97;;;19.03;;
10170;SDS011;5127;50.922;6.988;2023-03-03T04:32:56;31.13;;;19.47;;
10170;SDS011;5127;50.922;6.988;2023-03-03T04:35:25;32.63;;;19.07;;
10170;SDS011;5127;50.922;6.988;2023-03-03T04:37:53;28.53;;;18.70;;
10170;SDS011;5127;50.922;6.988;2023-03-03T04:40:20;29.60;;;18.40;;
10170;SDS011;5127;50.922;6.988;2023-03-03T04:42:50;27.77;;;17.53;;
10170;SDS011;5127;50.922;6.988;2023-03-03T04:45:17;28.57;;;18.13;;
10170;SDS011;5127;50.922;6.988;2023-03-03T04:47:45;27.87;;;17.27;;
10170;SDS011;5127;50.922;6.988;2023-03-03T04:50:13;28.40;;;18.03;;
10170;SDS011;5127;50.922;6.988;2023-03-03T04:52:41;28.90;;;18.37;;
10170;SDS011;5127;50.922;6.988;2023-03-03T04:55:09;27.13;;;18.00;;
10170;SDS011;5127;50.922;6.988;2023-03-03T04:57:38;29.30;;;18.43;;
10170;SDS011;5127;50.922;6.988;2023-03-03T05:00:08;27.53;;;18.83;;
10170;SDS011;5127;50.922;6.988;2023-03-03T05:02:37;28.60;;;17.57;;
10170;SDS011;5127;50.922;6.988;2023-03-03T05:05:05;27.37;;;17.70;;
10170;SDS011;5127;50.922;6.988;2023-03-03T05:07:34;26.13;;;17.17;;
10170;SDS011;5127;50.922;6.988;2023-03-03T05:10:01;25.77;;;16.63;;
10170;SDS011;5127;50.922;6.988;2023-03-03T05:12:28;27.77;;;17.10;;
10170;SDS011;5127;50.922;6.988;2023-03-03T05:14:56;24.23;;;15.77;;
10170;SDS011;5127;50.922;6.988;2023-03-03T05:17:24;27.17;;;16.73;;
10170;SDS011;5127;50.922;6.988;2023-03-03T05:19:51;27.73;;;16.73;;
10170;SDS011;5127;50.922;6.988;2023-03-03T05:22:21;24.93;;;15.73;;
10170;SDS011;5127;50.922;6.988;2023-03-03T05:24:49;23.17;;;15.60;;
10170;SDS011;5127;50.922;6.988;2023-03-03T05:27:17;24.33;;;15.87;;
10170;SDS011;5127;50.922;6.988;2023-03-03T05:29:44;25.03;;;15.77;;
10170;SDS011;5127;50.922;6.988;2023-03-03T05:32:11;22.83;;;15.13;;
10170;SDS011;5127;50.922;6.988;2023-03-03T05:34:40;23.60;;;15.47;;
10170;SDS011;5127;50.922;6.988;2023-03-03T05:37:07;22.43;;;14.73;;
10170;SDS011;5127;50.922;6.988;2023-03-03T05:39:34;24.30;;;16.07;;
10170;SDS011;5127;50.922;6.988;2023-03-03T05:42:02;22.40;;;14.40;;
10170;SDS011;5127;50.922;6.988;2023-03-03T05:44:29;23.87;;;15.47;;
10170;SDS011;5127;50.922;6.988;2023-03-03T05:46:57;25.97;;;15.63;;
10170;SDS011;5127;50.922;6.988;2023-03-03T05:49:24;24.27;;;15.17;;
10170;SDS011;5127;50.922;6.988;2023-03-03T05:51:53;22.87;;;14.13;;
10170;SDS011;5127;50.922;6.988;2023-03-03T05:54:20;22.57;;;14.97;;
10170;SDS011;5127;50.922;6.988;2023-03-03T05:56:47;22.83;;;15.13;;
10170;SDS011;5127;50.922;6.988;2023-03-03T05:59:14;23.60;;;15.13;;
10170;SDS011;5127;50.922;6.988;2023-03-03T06:01:42;23.37;;;15.63;;
10170;SDS011;5127;50.922;6.988;2023-03-03T06:04:09;22.73;;;15.40;;
10170;SDS011;5127;50.922;6.988;2023-03-03T06:06:36;21.77;;;14.77;;
10170;SDS011;5127;50.922;6.988;2023-03-03T06:09:05;23.10;;;15.73;;
10170;SDS011;5127;50.922;6.988;2023-03-03T06:11:32;24.53;;;15.57;;
10170;SDS011;5127;50.922;6.988;2023-03-03T06:13:59;26.17;;;15.43;;
10170;SDS011;5127;50.922;6.988;2023-03-03T06:16:26;24.93;;;15.87;;
10170;SDS011;5127;50.922;6.988;2023-03-03T06:18:54;22.73;;;15.13;;
10170;SDS011;5127;50.922;6.988;2023-03-03T06:21:21;26.57;;;16.77;;
10170;SDS011;5127;50.922;6.988;2023-03-03T06:23:48;25.80;;;16.07;;
10170;SDS011;5127;50.922;6.988;2023-03-03T06:26:17;24.50;;;15.97;;
10170;SDS011;5127;50.922;6.988;2023-03-03T06:28:44;25.17;;;16.20;;
10170;SDS011;5127;50.922;6.988;2023-03-03T06:31:11;25.80;;;16.07;;
10170;SDS011;5127;50.922;6.988;2023-03-03T06:33:38;25.27;;;16.17;;
10170;SDS011;5127;50.922;6.988;2023-03-03T06:36:07;23.93;;;15.40;;
10170;SDS011;5127;50.922;6.988;2023-03-03T06:38:35;22.47;;;14.83;;
10170;SDS011;5127;50.922;6.988;2023-03-03T06:41:03;26.93;;;16.80;;
10170;SDS011;5127;50.922;6.988;2023-03-03T06:43:33;24.50;;;14.80;;
10170;SDS011;5127;50.922;6.988;2023-03-03T06:46:01;27.77;;;17.20;;
10170;SDS011;5127;50.922;6.988;2023-03-03T06:48:29;26.50;;;16.33;;
10170;SDS011;5127;50.922;6.988;2023-03-03T06:50:57;26.40;;;16.40;;
10170;SDS011;5127;50.922;6.988;2023-03-03T06:53:25;25.00;;;16.33;;
10170;SDS011;5127;50.922;6.988;2023-03-03T06:55:53;23.30;;;15.60;;
10170;SDS011;5127;50.922;6.988;2023-03-03T06:58:21;24.83;;;15.37;;
10170;SDS011;5127;50.922;6.988;2023-03-03T07:00:51;24.03;;;15.63;;
10170;SDS011;5127;50.922;6.988;2023-03-03T07:03:22;23.77;;;14.97;;
10170;SDS011;5127;50.922;6.988;2023-03-03T07:05:51;23.07;;;15.10;;
10170;SDS011;5127;50.922;6.988;2023-03-03T07:08:20;23.53;;;15.67;;
10170;SDS011;5127;50.922;6.988;2023-03-03T07:10:49;24.57;;;15.57;;
10170;SDS011;5127;50.922;6.988;2023-03-03T07:13:19;21.43;;;13.63;;
10170;SDS011;5127;50.922;6.988;2023-03-03T07:15:48;23.73;;;14.97;;
10170;SDS011;5127;50.922;6.988;2023-03-03T07:21:13;22.70;;;14.43;;
10170;SDS011;5127;50.922;6.988;2023-03-03T07:23:44;20.17;;;13.03;;
10170;SDS011;5127;50.922;6.988;2023-03-03T07:26:12;22.00;;;13.87;;
10170;SDS011;5127;50.922;6.988;2023-03-03T07:28:41;21.67;;;13.67;;
10170;SDS011;5127;50.922;6.988;2023-03-03T07:31:22;21.90;;;14.13;;
10170;SDS011;5127;50.922;6.988;2023-03-03T07:33:54;21.23;;;13.13;;
10170;SDS011;5127;50.922;6.988;2023-03-03T07:36:25;19.97;;;13.23;;
10170;SDS011;5127;50.922;6.988;2023-03-03T07:38:56;21.50;;;13.90;;
10170;SDS011;5127;50.922;6.988;2023-03-03T07:41:25;22.53;;;14.07;;
10170;SDS011;5127;50.922;6.988;2023-03-03T07:43:55;21.60;;;13.83;;
10170;SDS011;5127;50.922;6.988;2023-03-03T07:46:27;20.70;;;12.77;;
10170;SDS011;5127;50.922;6.988;2023-03-03T07:48:58;19.30;;;13.33;;
10170;SDS011;5127;50.922;6.988;2023-03-03T07:51:27;18.80;;;12.43;;
10170;SDS011;5127;50.922;6.988;2023-03-03T07:54:00;20.83;;;14.07;;
10170;SDS011;5127;50.922;6.988;2023-03-03T07:57:01;20.37;;;13.73;;
10170;SDS011;5127;50.922;6.988;2023-03-03T07:59:40;22.47;;;14.20;;
10170;SDS011;5127;50.922;6.988;2023-03-03T08:02:17;23.27;;;15.13;;
10170;SDS011;5127;50.922;6.988;2023-03-03T08:05:14;23.50;;;14.60;;
10170;SDS011;5127;50.922;6.988;2023-03-03T08:07:51;21.57;;;13.37;;
10170;SDS011;5127;50.922;6.988;2023-03-03T08:10:26;21.10;;;13.83;;
10170;SDS011;5127;50.922;6.988;2023-03-03T08:13:00;21.63;;;13.37;;
10170;SDS011;5127;50.922;6.988;2023-03-03T08:15:39;22.93;;;14.30;;
10170;SDS011;5127;50.922;6.988;2023-03-03T08:18:12;20.70;;;13.53;;
10170;SDS011;5127;50.922;6.988;2023-03-03T08:20:58;21.13;;;13.97;;
10170;SDS011;5127;50.922;6.988;2023-03-03T08:23:26;23.20;;;14.00;;
10170;SDS011;5127;50.922;6.988;2023-03-03T08:25:53;20.87;;;12.93;;
10170;SDS011;5127;50.922;6.988;2023-03-03T08:28:21;17.83;;;12.17;;
10170;SDS011;5127;50.922;6.988;2023-03-03T08:30:48;21.50;;;13.53;;
10170;SDS011;5127;50.922;6.988;2023-03-03T08:33:16;19.03;;;12.63;;
10170;SDS011;5127;50.922;6.988;2023-03-03T08:35:44;19.27;;;13.07;;
10170;SDS011;5127;50.922;6.988;2023-03-03T08:38:14;19.33;;;12.63;;
10170;SDS011;5127;50.922;6.988;2023-03-03T08:40:43;20.47;;;13.20;;
10170;SDS011;5127;50.922;6.988;2023-03-03T08:43:10;18.50;;;13.20;;
10170;SDS011;5127;50.922;6.988;2023-03-03T08:45:41;19.37;;;13.27;;
10170;SDS011;5127;50.922;6.988;2023-03-03T08:48:10;18.97;;;13.07;;
10170;SDS011;5127;50.922;6.988;2023-03-03T08:50:38;23.03;;;14.80;;
10170;SDS011;5127;50.922;6.988;2023-03-03T08:53:06;24.13;;;15.27;;
10170;SDS011;5127;50.922;6.988;2023-03-03T08:55:35;27.37;;;17.53;;
10170;SDS011;5127;50.922;6.988;2023-03-03T08:58:02;24.57;;;16.57;;
10170;SDS011;5127;50.922;6.988;2023-03-03T09:00:30;26.27;;;17.63;;
10170;SDS011;5127;50.922;6.988;2023-03-03T09:02:57;26.10;;;17.03;;
10170;SDS011;5127;50.922;6.988;2023-03-03T09:05:24;24.07;;;15.30;;
10170;SDS011;5127;50.922;6.988;2023-03-03T09:07:53;21.00;;;14.67;;
10170;SDS011;5127;50.922;6.988;2023-03-03T09:10:22;21.67;;;15.03;;
10170;SDS011;5127;50.922;6.988;2023-03-03T09:12:57;20.30;;;14.13;;
10170;SDS011;5127;50.922;6.988;2023-03-03T09:15:28;20.17;;;13.87;;
10170;SDS011;5127;50.922;6.988;2023-03-03T09:17:57;21.93;;;13.80;;
10170;SDS011;5127;50.922;6.988;2023-03-03T09:20:32;19.93;;;13.37;;
10170;SDS011;5127;50.922;6.988;2023-03-03T09:23:15;21.57;;;14.30;;
10170;SDS011;5127;50.922;6.988;2023-03-03T09:25:56;20.77;;;13.90;;
10170;SDS011;5127;50.922;6.988;2023-03-03T09:28:27;23.27;;;14.80;;
10170;SDS011;5127;50.922;6.988;2023-03-03T09:30:56;21.50;;;14.53;;
10170;SDS011;5127;50.922;6.988;2023-03-03T09:33:26;20.73;;;13.73;;
10170;SDS011;5127;50.922;6.988;2023-03-03T09:35:57;21.43;;;14.03;;
10170;SDS011;5127;50.922;6.988;2023-03-03T09:38:29;17.20;;;11.93;;
10170;SDS011;5127;50.922;6.988;2023-03-03T09:41:16;19.90;;;14.17;;
10170;SDS011;5127;50.922;6.988;2023-03-03T09:44:02;18.37;;;12.03;;
10170;SDS011;5127;50.922;6.988;2023-03-03T09:46:44;16.80;;;11.83;;
10170;SDS011;5127;50.922;6.988;2023-03-03T09:49:24;23.60;;;15.50;;
10170;SDS011;5127;50.922;6.988;2023-03-03T09:52:08;23.37;;;16.83;;
10170;SDS011;5127;50.922;6.988;2023-03-03T09:54:50;25.30;;;17.90;;
10170;SDS011;5127;50.922;6.988;2023-03-03T09:57:22;27.20;;;17.87;;
10170;SDS011;5127;50.922;6.988;2023-03-03T10:02:48;22.10;;;15.17;;
10170;SDS011;5127;50.922;6.988;2023-03-03T10:05:32;23.07;;;16.00;;
10170;SDS011;5127;50.922;6.988;2023-03-03T10:08:23;22.03;;;15.03;;
10170;SDS011;5127;50.922;6.988;2023-03-03T10:11:07;22.90;;;15.17;;
10170;SDS011;5127;50.922;6.988;2023-03-03T10:13:47;21.43;;;14.33;;
10170;SDS011;5127;50.922;6.988;2023-03-03T10:16:37;22.40;;;13.77;;
10170;SDS011;5127;50.922;6.988;2023-03-03T10:19:14;21.03;;;14.23;;
10170;SDS011;5127;50.922;6.988;2023-03-03T10:22:04;19.33;;;13.47;;
10170;SDS011;5127;50.922;6.988;2023-03-03T10:24:46;19.87;;;13.10;;
10170;SDS011;5127;50.922;6.988;2023-03-03T10:27:46;18.07;;;12.20;;
10170;SDS011;5127;50.922;6.988;2023-03-03T10:30:25;17.90;;;11.40;;
10170;SDS011;5127;50.922;6.988;2023-03-03T10:32:58;19.20;;;13.17;;
10170;SDS011;5127;50.922;6.988;2023-03-03T10:38:31;18.77;;;12.87;;
10170;SDS011;5127;50.922;6.988;2023-03-03T10:41:13;21.97;;;14.30;;
10170;SDS011;5127;50.922;6.988;2023-03-03T10:44:02;22.83;;;15.13;;
10170;SDS011;5127;50.922;6.988;2023-03-03T10:46:51;23.23;;;14.70;;
10170;SDS011;5127;50.922;6.988;2023-03-03T10:49:38;21.77;;;14.70;;
10170;SDS011;5127;50.922;6.988;2023-03-03T10:52:21;24.30;;;15.50;;
10170;SDS011;5127;50.922;6.988;2023-03-03T10:55:05;21.03;;;14.47;;
10170;SDS011;5127;50.922;6.988;2023-03-03T10:58:13;21.63;;;14.07;;
10170;SDS011;5127;50.922;6.988;2023-03-03T11:01:02;22.17;;;14.27;;
10170;SDS011;5127;50.922;6.988;2023-03-03T11:03:40;23.50;;;15.23;;
10170;SDS011;5127;50.922;6.988;2023-03-03T11:06:42;22.90;;;15.00;;
10170;SDS011;5127;50.922;6.988;2023-03-03T11:09:16;22.13;;;15.20;;
10170;SDS011;5127;50.922;6.988;2023-03-03T11:11:58;22.53;;;15.37;;
10170;SDS011;5127;50.922;6.988;2023-03-03T11:14:42;27.07;;;18.03;;
10170;SDS011;5127;50.922;6.988;2023-03-03T11:17:15;27.70;;;17.40;;
10170;SDS011;5127;50.922;6.988;2023-03-03T11:19:52;24.83;;;16.20;;
10170;SDS011;5127;50.922;6.988;2023-03-03T11:22:30;21.67;;;15.27;;
10170;SDS011;5127;50.922;6.988;2023-03-03T11:25:10;21.07;;;14.63;;
10170;SDS011;5127;50.922;6.988;2023-03-03T11:30:52;25.40;;;16.30;;
10170;SDS011;5127;50.922;6.988;2023-03-03T11:33:33;24.43;;;16.93;;
10170;SDS011;5127;50.922;6.988;2023-03-03T11:36:10;25.80;;;17.10;;
10170;SDS011;5127;50.922;6.988;2023-03-03T11:38:44;24.60;;;16.30;;
10170;SDS011;5127;50.922;6.988;2023-03-03T11:41:19;25.07;;;16.33;;
10170;SDS011;5127;50.922;6.988;2023-03-03T11:43:57;26.37;;;16.47;;
10170;SDS011;5127;50.922;6.988;2023-03-03T11:46:31;27.87;;;17.87;;
10170;SDS011;5127;50.922;6.988;2023-03-03T11:49:04;25.23;;;16.17;;
10170;SDS011;5127;50.922;6.988;2023-03-03T11:51:43;25.40;;;16.30;;
10170;SDS011;5127;50.922;6.988;2023-03-03T11:54:17;24.37;;;16.47;;
10170;SDS011;5127;50.922;6.988;2023-03-03T11:56:49;26.03;;;16.87;;
10170;SDS011;5127;50.922;6.988;2023-03-03T12:02:24;26.50;;;16.47;;
10170;SDS011;5127;50.922;6.988;2023-03-03T12:05:26;21.80;;;15.10;;
10170;SDS011;5127;50.922;6.988;2023-03-03T12:08:06;26.63;;;16.70;;
10170;SDS011;5127;50.922;6.988;2023-03-03T12:10:40;26.70;;;16.97;;
10170;SDS011;5127;50.922;6.988;2023-03-03T12:13:16;25.60;;;16.70;;
10170;SDS011;5127;50.922;6.988;2023-03-03T12:15:52;24.40;;;16.43;;
10170;SDS011;5127;50.922;6.988;2023-03-03T12:21:25;28.30;;;17.37;;
10170;SDS011;5127;50.922;6.988;2023-03-03T12:24:11;24.17;;;15.47;;
10170;SDS011;5127;50.922;6.988;2023-03-03T12:26:46;28.20;;;18.50;;
10170;SDS011;5127;50.922;6.988;2023-03-03T12:29:26;28.70;;;19.50;;
10170;SDS011;5127;50.922;6.988;2023-03-03T12:32:03;27.77;;;18.90;;
10170;SDS011;5127;50.922;6.988;2023-03-03T12:34:43;30.27;;;20.67;;
10170;SDS011;5127;50.922;6.988;2023-03-03T12:37:27;31.43;;;20.33;;
10170;SDS011;5127;50.922;6.988;2023-03-03T12:40:06;32.23;;;20.27;;
10170;SDS011;5127;50.922;6.988;2023-03-03T12:42:41;30.97;;;20.97;;
10170;SDS011;5127;50.922;6.988;2023-03-03T12:45:26;30.40;;;19.97;;
10170;SDS011;5127;50.922;6.988;2023-03-03T12:48:04;31.70;;;20.70;;
10170;SDS011;5127;50.922;6.988;2023-03-03T12:50:39;30.40;;;20.77;;
10170;SDS011;5127;50.922;6.988;2023-03-03T12:53:19;29.87;;;19.73;;
10170;SDS011;5127;50.922;6.988;2023-03-03T12:55:54;30.93;;;19.63;;
10170;SDS011;5127;50.922;6.988;2023-03-03T12:58:33;30.13;;;19.57;;
10170;SDS011;5127;50.922;6.988;2023-03-03T13:01:13;28.57;;;18.70;;
10170;SDS011;5127;50.922;6.988;2023-03-03T13:03:51;32.77;;;20.13;;
10170;SDS011;5127;50.922;6.988;2023-03-03T13:06:28;33.33;;;20.97;;
10170;SDS011;5127;50.922;6.988;2023-03-03T13:09:00;31.50;;;19.30;;
10170;SDS011;5127;50.922;6.988;2023-03-03T13:11:50;32.60;;;19.83;;
10170;SDS011;5127;50.922;6.988;2023-03-03T13:14:39;27.33;;;17.70;;
10170;SDS011;5127;50.922;6.988;2023-03-03T13:17:16;27.57;;;17.97;;
10170;SDS011;5127;50.922;6.988;2023-03-03T13:19:50;29.07;;;18.13;;
10170;SDS011;5127;50.922;6.988;2023-03-03T13:25:19;27.57;;;17.03;;
10170;SDS011;5127;50.922;6.988;2023-03-03T13:27:59;24.90;;;15.47;;
10170;SDS011;5127;50.922;6.988;2023-03-03T13:30:30;23.93;;;15.93;;
10170;SDS011;5127;50.922;6.988;2023-03-03T13:33:00;26.13;;;16.70;;
10170;SDS011;5127;50.922;6.988;2023-03-03T13:35:37;24.40;;;16.50;;
10170;SDS011;5127;50.922;6.988;2023-03-03T13:38:12;25.57;;;16.10;;
10170;SDS011;5127;50.922;6.988;2023-03-03T13:40:44;26.93;;;16.40;;
10170;SDS011;5127;50.922;6.988;2023-03-03T13:43:16;24.80;;;16.13;;
10170;SDS011;5127;50.922;6.988;2023-03-03T13:45:49;27.87;;;16.97;;
10170;SDS011;5127;50.922;6.988;2023-03-03T13:48:26;29.53;;;18.13;;
10170;SDS011;5127;50.922;6.988;2023-03-03T13:51:07;27.90;;;18.33;;
10170;SDS011;5127;50.922;6.988;2023-03-03T13:53:46;27.57;;;17.40;;
10170;SDS011;5127;50.922;6.988;2023-03-03T13:56:23;26.33;;;16.53;;
10170;SDS011;5127;50.922;6.988;2023-03-03T13:59:07;26.87;;;17.07;;
10170;SDS011;5127;50.922;6.988;2023-03-03T14:01:45;31.27;;;19.40;;
10170;SDS011;5127;50.922;6.988;2023-03-03T14:04:26;29.43;;;18.57;;
10170;SDS011;5127;50.922;6.988;2023-03-03T14:07:02;30.53;;;18.00;;
10170;SDS011;5127;50.922;6.988;2023-03-03T14:09:43;29.97;;;17.57;;
10170;SDS011;5127;50.922;6.988;2023-03-03T14:12:20;30.67;;;18.60;;
10170;SDS011;5127;50.922;6.988;2023-03-03T14:14:53;31.33;;;18.50;;
10170;SDS011;5127;50.922;6.988;2023-03-03T14:17:31;28.87;;;17.63;;
10170;SDS011;5127;50.922;6.988;2023-03-03T14:20:09;31.23;;;17.73;;
10170;SDS011;5127;50.922;6.988;2023-03-03T14:22:44;31.80;;;17.90;;
10170;SDS011;5127;50.922;6.988;2023-03-03T14:25:17;30.17;;;18.43;;
10170;SDS011;5127;50.922;6.988;2023-03-03T14:28:01;33.43;;;19.13;;
10170;SDS011;5127;50.922;6.988;2023-03-03T14:30:36;32.07;;;19.07;;
10170;SDS011;5127;50.922;6.988;2023-03-03T14:33:13;31.30;;;18.53;;
10170;SDS011;5127;50.922;6.988;2023-03-03T14:35:47;31.17;;;17.97;;
10170;SDS011;5127;50.922;6.988;2023-03-03T14:38:34;30.87;;;16.63;;
10170;SDS011;5127;50.922;6.988;2023-03-03T14:41:10;30.87;;;16.80;;
10170;SDS011;5127;50.922;6.988;2023-03-03T14:43:41;31.57;;;18.37;;
10170;SDS011;5127;50.922;6.988;2023-03-03T14:46:28;29.23;;;16.97;;
10170;SDS011;5127;50.922;6.988;2023-03-03T14:49:04;32.23;;;17.50;;
10170;SDS011;5127;50.922;6.988;2023-03-03T14:51:40;33.20;;;19.37;;
10170;SDS011;5127;50.922;6.988;2023-03-03T14:54:13;36.60;;;19.63;;
10170;SDS011;5127;50.922;6.988;2023-03-03T14:56:57;36.03;;;19.33;;
10170;SDS011;5127;50.922;6.988;2023-03-03T14:59:37;34.87;;;18.93;;
10170;SDS011;5127;50.922;6.988;2023-03-03T15:05:07;32.90;;;17.50;;
10170;SDS011;5127;50.922;6.988;2023-03-03T15:07:42;36.63;;;19.03;;
10170;SDS011;5127;50.922;6.988;2023-03-03T15:10:11;33.43;;;18.10;;
10170;SDS011;5127;50.922;6.988;2023-03-03T15:12:52;36.40;;;19.10;;
10170;SDS011;5127;50.922;6.988;2023-03-03T15:15:20;37.47;;;19.40;;
10170;SDS011;5127;50.922;6.988;2023-03-03T15:17:53;35.87;;;18.20;;
10170;SDS011;5127;50.922;6.988;2023-03-03T15:20:36;39.57;;;20.23;;
10170;SDS011;5127;50.922;6.988;2023-03-03T15:26:01;38.97;;;19.43;;
10170;SDS011;5127;50.922;6.988;2023-03-03T15:28:38;34.03;;;19.13;;
10170;SDS011;5127;50.922;6.988;2023-03-03T15:31:19;39.20;;;19.30;;
10170;SDS011;5127;50.922;6.988;2023-03-03T15:33:56;36.50;;;19.23;;
10170;SDS011;5127;50.922;6.988;2023-03-03T15:36:30;35.87;;;20.10;;